createdAt,value
2019-05-12T00:00:48.838Z,57.00
2019-05-12T00:03:18.709Z,57.00
2019-05-12T00:05:45.480Z,57.00
2019-05-12T00:08:12.949Z,56.90
2019-05-12T00:10:40.410Z,56.90
2019-05-12T00:13:08.517Z,56.90
2019-05-12T00:15:38.280Z,56.80
2019-05-12T00:18:05.387Z,56.80
2019-05-12T00:20:32.849Z,56.70
2019-05-12T00:23:01.953Z,56.60
2019-05-12T00:25:29.425Z,56.70
2019-05-12T00:27:58.635Z,56.70
2019-05-12T00:30:43.010Z,56.60
2019-05-12T00:33:10.484Z,56.60
2019-05-12T00:35:38.295Z,56.50
2019-05-12T00:38:08.663Z,56.50
2019-05-12T00:40:35.142Z,56.50
2019-05-12T00:43:02.626Z,56.50
2019-05-12T00:45:30.090Z,56.50
2019-05-12T00:47:58.192Z,56.50
2019-05-12T00:50:26.598Z,56.40
2019-05-12T00:52:55.687Z,56.50
2019-05-12T00:55:24.482Z,56.50
2019-05-12T00:57:51.948Z,56.50
2019-05-12T01:00:19.414Z,56.40
2019-05-12T01:02:48.606Z,56.30
2019-05-12T01:05:17.712Z,56.30
2019-05-12T01:07:45.333Z,56.40
2019-05-12T01:10:12.806Z,56.40
2019-05-12T01:12:40.272Z,56.30
2019-05-12T01:15:07.729Z,56.30
2019-05-12T01:17:35.196Z,56.30
2019-05-12T01:20:03.026Z,56.10
2019-05-12T01:22:30.484Z,56.00
2019-05-12T01:24:57.949Z,56.00
2019-05-12T01:27:25.414Z,56.00
2019-05-12T01:29:52.889Z,56.30
2019-05-12T01:32:24.645Z,56.10
2019-05-12T01:34:52.121Z,56.00
2019-05-12T01:37:22.286Z,55.90
2019-05-12T01:39:50.429Z,55.90
2019-05-12T01:42:18.138Z,56.00
2019-05-12T01:44:48.062Z,56.00
2019-05-12T01:47:14.912Z,55.90
2019-05-12T01:49:42.376Z,56.00
2019-05-12T01:52:09.847Z,55.90
2019-05-12T01:54:38.042Z,55.90
2019-05-12T01:57:07.969Z,55.90
2019-05-12T01:59:34.741Z,55.90
2019-05-12T02:02:02.217Z,55.90
2019-05-12T02:04:40.308Z,55.90
2019-05-12T02:07:08.386Z,55.90
2019-05-12T02:09:38.700Z,55.80
2019-05-12T02:12:08.120Z,55.90
2019-05-12T02:14:35.141Z,55.90
2019-05-12T02:17:02.608Z,55.90
2019-05-12T02:19:30.074Z,55.80
2019-05-12T02:21:57.892Z,55.70
2019-05-12T02:24:27.949Z,55.70
2019-05-12T02:26:54.765Z,55.70
2019-05-12T02:29:22.233Z,55.70
2019-05-12T02:31:50.252Z,55.60
2019-05-12T02:34:17.982Z,55.60
2019-05-12T02:36:45.727Z,55.50
2019-05-12T02:39:14.941Z,56.10
2019-05-12T02:41:44.866Z,55.50
2019-05-12T02:44:14.919Z,55.40
2019-05-12T02:46:41.144Z,55.40
2019-05-12T02:49:08.606Z,55.30
2019-05-12T02:51:36.074Z,55.40
2019-05-12T02:54:05.472Z,55.30
2019-05-12T02:56:35.585Z,55.30
2019-05-12T02:59:05.212Z,55.30
2019-05-12T03:01:34.580Z,55.30
2019-05-12T03:04:01.090Z,55.30
2019-05-12T03:06:28.577Z,55.30
2019-05-12T03:08:57.674Z,55.20
2019-05-12T03:11:25.811Z,55.10
2019-05-12T03:13:54.834Z,55.20
2019-05-12T03:16:25.627Z,55.50
2019-05-12T03:18:51.704Z,55.20
2019-05-12T03:21:19.157Z,55.20
2019-05-12T03:23:46.621Z,55.20
2019-05-12T03:26:15.339Z,55.10
2019-05-12T03:28:44.622Z,55.20
2019-05-12T03:31:21.977Z,55.10
2019-05-12T03:33:46.018Z,55.10
2019-05-12T03:36:10.776Z,55.20
2019-05-12T03:38:38.334Z,55.10
2019-05-12T03:41:05.800Z,55.20
2019-05-12T03:43:35.131Z,55.30
2019-05-12T03:46:05.255Z,55.30
2019-05-12T03:48:34.715Z,55.40
2019-05-12T03:51:00.932Z,55.20
2019-05-12T03:53:28.409Z,55.20
2019-05-12T03:55:55.862Z,55.20
2019-05-12T03:58:25.596Z,55.20
2019-05-12T04:00:55.343Z,55.20
2019-05-12T04:03:24.455Z,55.10
2019-05-12T04:05:50.954Z,55.10
2019-05-12T04:08:18.423Z,55.10
2019-05-12T04:10:46.137Z,55.00
2019-05-12T04:13:15.021Z,55.00
2019-05-12T04:15:45.547Z,55.00
2019-05-12T04:18:15.511Z,54.90
2019-05-12T04:20:41.322Z,54.90
2019-05-12T04:23:08.833Z,54.90
2019-05-12T04:25:50.930Z,54.90
2019-05-12T04:28:05.494Z,54.80
2019-05-12T04:30:35.576Z,54.80
2019-05-12T04:33:04.686Z,54.80
2019-05-12T04:35:34.557Z,54.70
2019-05-12T04:38:00.673Z,54.60
2019-05-12T04:40:28.144Z,54.60
2019-05-12T04:42:55.610Z,54.60
2019-05-12T04:45:25.769Z,54.60
2019-05-12T04:47:55.245Z,55.20
2019-05-12T04:50:24.597Z,54.70
2019-05-12T04:52:54.648Z,54.70
2019-05-12T04:55:21.036Z,54.80
2019-05-12T04:57:48.499Z,54.90
2019-05-12T05:00:16.227Z,54.90
2019-05-12T05:02:45.605Z,55.00
2019-05-12T05:05:14.480Z,55.10
2019-05-12T05:07:44.818Z,55.40
2019-05-12T05:10:14.279Z,55.10
2019-05-12T05:12:40.608Z,55.20
2019-05-12T05:15:08.141Z,55.30
2019-05-12T05:17:35.607Z,55.40
2019-05-12T05:20:04.198Z,55.40
2019-05-12T05:22:33.357Z,55.30
2019-05-12T05:25:01.057Z,55.40
2019-05-12T05:27:28.513Z,55.40
2019-05-12T05:29:55.995Z,55.40
2019-05-12T05:32:23.746Z,55.60
2019-05-12T05:34:55.824Z,55.50
2019-05-12T05:37:20.405Z,55.50
2019-05-12T05:39:49.606Z,55.50
2019-05-12T05:42:17.090Z,55.70
2019-05-12T05:44:44.556Z,55.50
2019-05-12T05:47:13.875Z,55.50
2019-05-12T05:49:43.315Z,55.50
2019-05-12T05:52:10.413Z,55.60
2019-05-12T05:54:39.976Z,55.60
2019-05-12T05:57:07.064Z,55.60
2019-05-12T05:59:36.856Z,55.70
2019-05-12T06:02:04.969Z,55.80
2019-05-12T06:04:34.175Z,55.80
2019-05-12T06:07:04.122Z,55.80
2019-05-12T06:09:31.104Z,55.80
2019-05-12T06:11:59.110Z,55.80
2019-05-12T06:14:27.769Z,55.80
2019-05-12T06:16:55.284Z,55.80
2019-05-12T06:19:25.996Z,55.80
2019-05-12T06:21:53.382Z,55.50
2019-05-12T06:24:20.985Z,55.80
2019-05-12T06:27:00.003Z,55.80
2019-05-12T06:29:20.786Z,55.80
2019-05-12T06:31:46.836Z,55.80
2019-05-12T06:34:20.523Z,55.70
2019-05-12T06:36:44.148Z,55.40
2019-05-12T06:39:19.079Z,55.30
2019-05-12T06:41:40.917Z,55.00
2019-05-12T06:44:13.462Z,55.00
2019-05-12T06:46:37.906Z,54.80
2019-05-12T06:49:12.781Z,54.70
2019-05-12T06:51:34.593Z,54.70
2019-05-12T06:54:10.417Z,54.60
2019-05-12T06:56:31.213Z,54.40
2019-05-12T06:59:00.927Z,54.40
2019-05-12T07:01:27.881Z,54.30
2019-05-12T07:03:55.346Z,54.30
2019-05-12T07:06:24.699Z,54.20
2019-05-12T07:09:03.457Z,54.20
2019-05-12T07:11:23.981Z,54.20
2019-05-12T07:14:01.282Z,54.20
2019-05-12T07:16:25.128Z,54.10
2019-05-12T07:18:48.816Z,54.00
2019-05-12T07:21:20.204Z,54.00
2019-05-12T07:23:45.561Z,54.20
2019-05-12T07:26:19.230Z,54.20
2019-05-12T07:28:43.346Z,54.10
2019-05-12T07:31:11.019Z,54.10
2019-05-12T07:33:45.061Z,54.10
2019-05-12T07:36:07.666Z,54.10
2019-05-12T07:38:35.156Z,54.10
2019-05-12T07:41:06.790Z,54.00
2019-05-12T07:43:33.795Z,54.00
2019-05-12T07:46:05.304Z,54.20
2019-05-12T07:48:30.282Z,54.10
2019-05-12T07:51:00.520Z,54.10
2019-05-12T07:53:26.947Z,54.00
2019-05-12T07:55:54.489Z,54.00
2019-05-12T07:58:23.926Z,53.80
2019-05-12T08:00:53.972Z,53.70
2019-05-12T08:03:21.344Z,53.60
2019-05-12T08:05:51.300Z,53.50
2019-05-12T08:08:18.844Z,53.50
2019-05-12T08:10:51.429Z,53.40
2019-05-12T08:13:18.311Z,53.40
2019-05-12T08:15:48.910Z,53.50
2019-05-12T08:18:14.107Z,53.60
2019-05-12T08:20:43.546Z,53.40
2019-05-12T08:23:10.958Z,53.50
2019-05-12T08:25:38.415Z,53.40
2019-05-12T08:28:15.205Z,53.50
2019-05-12T08:30:40.274Z,53.40
2019-05-12T08:33:09.528Z,53.50
2019-05-12T08:35:38.025Z,53.40
2019-05-12T08:38:04.050Z,53.40
2019-05-12T08:40:33.925Z,53.40
2019-05-12T08:43:07.956Z,53.40
2019-05-12T08:45:34.826Z,53.40
2019-05-12T08:48:00.278Z,53.30
2019-05-12T08:50:31.738Z,53.30
2019-05-12T08:52:56.937Z,53.30
2019-05-12T08:55:31.108Z,53.30
2019-05-12T08:57:54.158Z,53.30
2019-05-12T09:00:23.816Z,53.30
2019-05-12T09:02:51.308Z,53.10
2019-05-12T09:05:18.770Z,53.20
2019-05-12T09:07:46.256Z,53.20
2019-05-12T09:10:14.309Z,53.10
2019-05-12T09:12:44.088Z,53.10
2019-05-12T09:15:13.435Z,53.20
2019-05-12T09:17:49.114Z,53.30
2019-05-12T09:20:09.553Z,53.30
2019-05-12T09:22:37.284Z,53.30
2019-05-12T09:25:08.242Z,53.30
2019-05-12T09:27:39.404Z,53.20
2019-05-12T09:30:08.166Z,53.20
2019-05-12T09:32:34.007Z,53.20
2019-05-12T09:35:03.790Z,53.30
2019-05-12T09:37:35.623Z,53.20
2019-05-12T09:39:59.977Z,53.10
2019-05-12T09:42:29.926Z,53.10
2019-05-12T09:44:59.926Z,53.10
2019-05-12T09:47:27.724Z,53.10
2019-05-12T09:49:55.047Z,53.10
2019-05-12T09:52:27.031Z,53.00
2019-05-12T09:54:53.491Z,53.00
2019-05-12T09:57:20.912Z,52.90
2019-05-12T09:59:57.339Z,52.80
2019-05-12T10:02:20.646Z,52.80
2019-05-12T10:04:50.266Z,52.80
2019-05-12T10:07:15.953Z,52.70
2019-05-12T10:09:44.019Z,52.60
2019-05-12T10:12:13.552Z,52.50
2019-05-12T10:14:45.669Z,52.60
2019-05-12T10:17:09.915Z,52.50
2019-05-12T10:19:37.385Z,52.60
2019-05-12T10:22:04.845Z,52.60
2019-05-12T10:24:41.480Z,52.50
2019-05-12T10:27:03.815Z,52.50
2019-05-12T10:29:32.434Z,52.50
2019-05-12T10:32:00.066Z,52.50
2019-05-12T10:34:29.225Z,52.50
2019-05-12T10:36:56.729Z,52.50
2019-05-12T10:39:24.663Z,52.50
2019-05-12T10:41:54.587Z,52.50
2019-05-12T10:44:21.657Z,52.60
2019-05-12T10:46:50.782Z,52.70
2019-05-12T10:49:18.246Z,52.70
2019-05-12T10:51:47.537Z,52.70
2019-05-12T10:54:15.729Z,52.70
2019-05-12T10:56:43.941Z,52.70
2019-05-12T10:59:13.360Z,52.70
2019-05-12T11:01:47.197Z,52.60
2019-05-12T11:04:10.113Z,52.50
2019-05-12T11:06:39.620Z,52.50
2019-05-12T11:09:07.802Z,52.40
2019-05-12T11:11:42.356Z,52.40
2019-05-12T11:14:04.518Z,52.30
2019-05-12T11:16:32.956Z,52.30
2019-05-12T11:19:06.396Z,52.20
2019-05-12T11:21:30.352Z,52.20
2019-05-12T11:23:57.830Z,52.30
2019-05-12T11:26:25.306Z,52.20
2019-05-12T11:28:53.197Z,52.10
2019-05-12T11:31:20.900Z,51.90
2019-05-12T11:33:48.370Z,52.00
2019-05-12T11:36:15.832Z,51.90
2019-05-12T11:38:44.442Z,51.90
2019-05-12T11:41:16.235Z,51.90
2019-05-12T11:43:41.283Z,51.90
2019-05-12T11:46:08.748Z,52.00
2019-05-12T11:48:40.332Z,51.80
2019-05-12T11:51:05.421Z,51.90
2019-05-12T11:53:34.950Z,51.90
2019-05-12T11:56:06.997Z,51.90
2019-05-12T11:58:33.404Z,52.00
2019-05-12T12:01:04.733Z,52.00
2019-05-12T12:03:33.559Z,52.40
2019-05-12T12:06:00.700Z,51.90
2019-05-12T12:08:33.639Z,51.90
2019-05-12T12:10:57.360Z,52.00
2019-05-12T12:13:29.714Z,51.90
2019-05-12T12:15:54.073Z,51.90
2019-05-12T12:18:23.607Z,51.90
2019-05-12T12:20:55.056Z,52.00
2019-05-12T12:23:19.960Z,52.00
2019-05-12T12:25:48.519Z,52.00
2019-05-12T12:28:16.473Z,51.90
2019-05-12T12:30:47.307Z,52.00
2019-05-12T12:33:14.368Z,52.00
2019-05-12T12:35:44.319Z,52.00
2019-05-12T12:38:13.835Z,52.00
2019-05-12T12:40:40.665Z,51.90
2019-05-12T12:43:08.405Z,51.70
2019-05-12T12:45:40.786Z,51.70
2019-05-12T12:48:08.394Z,51.70
2019-05-12T12:50:35.853Z,51.60
2019-05-12T12:53:03.590Z,51.50
2019-05-12T12:55:31.061Z,51.50
2019-05-12T12:57:58.548Z,51.40
2019-05-12T13:00:32.131Z,51.30
2019-05-12T13:02:55.268Z,51.30
2019-05-12T13:05:23.953Z,51.20
2019-05-12T13:07:53.475Z,51.20
2019-05-12T13:10:20.768Z,51.20
2019-05-12T13:12:50.455Z,51.10
2019-05-12T13:15:20.796Z,51.10
2019-05-12T13:17:46.772Z,51.10
2019-05-12T13:20:14.245Z,51.20
2019-05-12T13:22:44.213Z,51.20
2019-05-12T13:25:10.987Z,51.10
2019-05-12T13:27:38.734Z,51.10
2019-05-12T13:30:18.548Z,51.10
2019-05-12T13:32:38.049Z,51.20
2019-05-12T13:35:09.605Z,51.20
2019-05-12T13:37:34.609Z,51.10
2019-05-12T13:40:02.342Z,51.20
2019-05-12T13:42:30.474Z,51.20
2019-05-12T13:44:59.071Z,51.10
2019-05-12T13:47:29.114Z,51.10
2019-05-12T13:49:55.721Z,51.10
2019-05-12T13:52:26.390Z,51.10
2019-05-12T13:54:52.377Z,51.10
2019-05-12T13:57:19.849Z,51.10
2019-05-12T13:59:47.318Z,51.00
2019-05-12T14:02:21.993Z,51.00
2019-05-12T14:04:44.358Z,50.90
2019-05-12T14:07:17.732Z,50.80
2019-05-12T14:09:43.569Z,50.70
2019-05-12T14:12:10.406Z,51.10
2019-05-12T14:14:37.874Z,50.40
2019-05-12T14:17:05.347Z,50.30
2019-05-12T14:19:35.538Z,50.20
2019-05-12T14:22:03.527Z,50.20
2019-05-12T14:24:33.228Z,50.00
2019-05-12T14:27:00.446Z,50.10
2019-05-12T14:29:30.527Z,50.00
2019-05-12T14:32:02.449Z,49.90
2019-05-12T14:34:26.309Z,49.70
2019-05-12T14:37:04.787Z,50.30
2019-05-12T14:39:23.974Z,49.60
2019-05-12T14:41:53.388Z,49.70
2019-05-12T14:44:20.785Z,49.50
2019-05-12T14:46:50.588Z,49.50
2019-05-12T14:49:20.375Z,49.50
2019-05-12T14:51:46.713Z,49.50
2019-05-12T14:54:14.183Z,49.60
2019-05-12T14:56:47.154Z,49.60
2019-05-12T14:59:11.037Z,49.70
2019-05-12T15:01:56.612Z,49.70
2019-05-12T15:04:07.696Z,49.70
2019-05-12T15:06:35.177Z,49.70
2019-05-12T15:09:03.917Z,49.70
2019-05-12T15:11:31.381Z,49.70
2019-05-12T15:13:58.850Z,49.70
2019-05-12T15:16:26.318Z,49.70
2019-05-12T15:18:54.239Z,49.70
2019-05-12T15:21:27.298Z,49.70
2019-05-12T15:23:53.194Z,50.00
2019-05-12T15:26:20.212Z,49.70
2019-05-12T15:28:47.703Z,49.70
2019-05-12T15:31:15.170Z,50.00
2019-05-12T15:33:44.023Z,49.80
2019-05-12T15:36:13.684Z,49.70
2019-05-12T15:38:40.877Z,49.70
2019-05-12T15:41:10.540Z,49.70
2019-05-12T15:43:44.208Z,49.80
2019-05-12T15:46:06.744Z,49.60
2019-05-12T15:48:34.373Z,49.50
2019-05-12T15:51:07.006Z,49.60
2019-05-12T15:53:33.333Z,49.50
2019-05-12T15:56:05.884Z,49.50
2019-05-12T15:58:29.424Z,49.40
2019-05-12T16:00:58.062Z,49.40
2019-05-12T16:03:26.552Z,49.50
2019-05-12T16:05:54.367Z,49.60
2019-05-12T16:08:21.841Z,49.50
2019-05-12T16:10:49.882Z,49.50
2019-05-12T16:13:17.367Z,49.60
2019-05-12T16:15:49.423Z,49.50
2019-05-12T16:18:14.499Z,49.50
2019-05-12T16:20:44.116Z,49.50
2019-05-12T16:23:15.484Z,49.40
2019-05-12T16:25:40.535Z,49.40
2019-05-12T16:28:17.144Z,49.50
2019-05-12T16:30:37.205Z,49.40
2019-05-12T16:33:04.673Z,49.40
2019-05-12T16:35:34.470Z,49.40
2019-05-12T16:38:05.986Z,49.30
2019-05-12T16:40:30.529Z,49.40
2019-05-12T16:42:59.811Z,49.30
2019-05-12T16:45:27.207Z,49.40
2019-05-12T16:47:59.366Z,49.20
2019-05-12T16:50:27.764Z,49.40
2019-05-12T16:52:53.601Z,49.40
2019-05-12T16:55:21.296Z,49.50
2019-05-12T16:57:52.839Z,49.40
2019-05-12T17:00:17.941Z,49.50
2019-05-12T17:02:53.682Z,49.40
2019-05-12T17:05:18.578Z,49.50
2019-05-12T17:07:44.229Z,49.60
2019-05-12T17:10:16.249Z,49.60
2019-05-12T17:12:43.541Z,49.70
2019-05-12T17:15:10.437Z,49.60
2019-05-12T17:17:37.919Z,49.50
2019-05-12T17:20:06.245Z,49.50
2019-05-12T17:22:33.704Z,49.50
2019-05-12T17:25:01.169Z,49.30
2019-05-12T17:27:28.630Z,49.30
2019-05-12T17:29:56.098Z,49.30
2019-05-12T17:32:23.898Z,49.20
2019-05-12T17:34:53.315Z,49.30
2019-05-12T17:37:20.693Z,49.30
2019-05-12T17:39:48.164Z,49.20
2019-05-12T17:42:21.767Z,49.30
2019-05-12T17:44:44.900Z,49.20
2019-05-12T17:47:21.045Z,49.20
2019-05-12T17:49:43.636Z,49.20
2019-05-12T17:52:13.101Z,49.30
2019-05-12T17:54:39.983Z,49.30
2019-05-12T17:57:09.448Z,49.30
2019-05-12T17:59:36.657Z,49.20
2019-05-12T18:02:09.933Z,49.20
2019-05-12T18:04:35.386Z,49.20
2019-05-12T18:07:12.185Z,49.30
2019-05-12T18:09:32.865Z,49.30
2019-05-12T18:12:00.330Z,49.30
2019-05-12T18:14:28.056Z,49.40
2019-05-12T18:17:04.242Z,49.30
2019-05-12T18:19:24.845Z,49.40
2019-05-12T18:21:54.951Z,50.00
2019-05-12T18:24:23.913Z,49.40
2019-05-12T18:26:56.546Z,49.50
2019-05-12T18:29:19.882Z,50.10
2019-05-12T18:31:47.374Z,49.60
2019-05-12T18:34:14.852Z,49.80
2019-05-12T18:36:42.318Z,49.90
2019-05-12T18:39:11.845Z,50.00
2019-05-12T18:41:39.029Z,49.90
2019-05-12T18:44:06.523Z,49.90
2019-05-12T18:46:38.679Z,49.80
2019-05-12T18:49:11.624Z,49.80
2019-05-12T18:51:34.313Z,49.80
2019-05-12T18:54:09.536Z,49.70
2019-05-12T18:56:30.782Z,49.70
2019-05-12T18:59:05.068Z,49.60
2019-05-12T19:01:27.538Z,49.50
2019-05-12T19:03:55.002Z,49.50
2019-05-12T19:06:23.456Z,49.40
2019-05-12T19:08:53.692Z,49.40
2019-05-12T19:11:23.641Z,49.90
2019-05-12T19:13:52.306Z,49.40
2019-05-12T19:16:18.685Z,49.30
2019-05-12T19:18:47.916Z,49.90
2019-05-12T19:21:18.556Z,49.30
2019-05-12T19:23:44.550Z,49.20
2019-05-12T19:26:13.562Z,49.20
2019-05-12T19:28:51.942Z,49.10
2019-05-12T19:31:10.416Z,49.10
2019-05-12T19:33:43.832Z,49.10
2019-05-12T19:36:07.994Z,49.10
2019-05-12T19:38:35.715Z,49.10
2019-05-12T19:41:04.611Z,48.90
2019-05-12T19:43:33.979Z,48.90
2019-05-12T19:46:03.372Z,48.90
2019-05-12T19:48:35.057Z,48.90
2019-05-12T19:51:10.135Z,48.90
2019-05-12T19:53:29.375Z,48.80
2019-05-12T19:55:59.825Z,48.90
2019-05-12T19:58:27.309Z,49.10
2019-05-12T20:00:54.777Z,49.10
2019-05-12T20:03:24.170Z,49.10
2019-05-12T20:05:53.677Z,48.90
2019-05-12T20:08:20.611Z,48.90
2019-05-12T20:10:49.629Z,48.80
2019-05-12T20:13:17.218Z,48.80
2019-05-12T20:15:44.678Z,48.70
2019-05-12T20:18:14.447Z,48.70
2019-05-12T20:20:44.394Z,48.70
2019-05-12T20:23:10.522Z,48.70
2019-05-12T20:25:38.009Z,48.70
2019-05-12T20:28:11.037Z,48.70
2019-05-12T20:30:34.674Z,48.70
2019-05-12T20:33:04.133Z,48.60
2019-05-12T20:35:33.364Z,48.60
2019-05-12T20:38:00.523Z,48.50
2019-05-12T20:40:32.219Z,48.50
2019-05-12T20:43:07.880Z,48.50
2019-05-12T20:45:26.390Z,48.50
2019-05-12T20:47:53.842Z,48.50
2019-05-12T20:50:24.182Z,48.50
2019-05-12T20:52:57.684Z,49.00
2019-05-12T20:55:19.682Z,48.40
2019-05-12T20:57:53.803Z,48.40
2019-05-12T21:00:16.397Z,48.50
2019-05-12T21:02:44.433Z,48.50
2019-05-12T21:05:16.376Z,48.50
2019-05-12T21:07:41.200Z,48.50
2019-05-12T21:10:08.667Z,48.50
2019-05-12T21:12:40.099Z,48.60
2019-05-12T21:15:13.858Z,48.60
2019-05-12T21:17:41.630Z,48.80
2019-05-12T21:20:04.896Z,48.80
2019-05-12T21:22:34.166Z,48.80
2019-05-12T21:25:03.976Z,48.50
2019-05-12T21:27:30.749Z,48.50
2019-05-12T21:30:00.758Z,48.40
2019-05-12T21:32:27.485Z,48.40
2019-05-12T21:34:57.768Z,48.30
2019-05-12T21:37:25.413Z,48.20
2019-05-12T21:39:53.089Z,48.20
2019-05-12T21:42:20.566Z,48.20
2019-05-12T21:44:48.985Z,48.10
2019-05-12T21:47:16.569Z,48.10
2019-05-12T21:49:48.538Z,48.00
2019-05-12T21:52:13.689Z,48.00
2019-05-12T21:54:41.241Z,48.00
2019-05-12T21:57:08.709Z,48.00
2019-05-12T21:59:39.575Z,47.90
2019-05-12T22:02:05.370Z,47.90
2019-05-12T22:04:41.051Z,47.90
2019-05-12T22:07:03.898Z,47.90
2019-05-12T22:09:32.967Z,47.90
2019-05-12T22:12:00.405Z,47.90
2019-05-12T22:14:30.323Z,47.90
2019-05-12T22:16:58.710Z,47.90
2019-05-12T22:19:30.884Z,48.00
2019-05-12T22:21:55.453Z,47.90
2019-05-12T22:24:25.223Z,48.00
2019-05-12T22:26:54.375Z,48.00
2019-05-12T22:29:29.937Z,48.00
2019-05-12T22:31:50.779Z,48.00
2019-05-12T22:34:18.253Z,48.00
2019-05-12T22:36:55.277Z,48.00
2019-05-12T22:39:14.917Z,48.00
2019-05-12T22:41:42.382Z,47.90
2019-05-12T22:44:09.851Z,48.30
2019-05-12T22:46:37.314Z,47.90
2019-05-12T22:49:04.805Z,47.70
2019-05-12T22:51:32.268Z,47.70
2019-05-12T22:54:00.645Z,47.70
2019-05-12T22:56:28.916Z,47.60
2019-05-12T22:59:00.042Z,47.60
2019-05-12T23:01:25.637Z,47.60
2019-05-12T23:03:55.858Z,47.60
2019-05-12T23:06:25.127Z,47.60
2019-05-12T23:08:51.480Z,47.60
2019-05-12T23:11:23.775Z,47.60
2019-05-12T23:13:48.181Z,48.20
2019-05-12T23:16:19.228Z,48.00
2019-05-12T23:18:44.846Z,47.50
2019-05-12T23:21:17.301Z,47.40
2019-05-12T23:23:41.489Z,47.40
2019-05-12T23:26:08.949Z,47.40
2019-05-12T23:28:40.643Z,47.40
2019-05-12T23:31:05.602Z,47.50
2019-05-12T23:33:36.542Z,47.40
2019-05-12T23:36:04.030Z,47.50
2019-05-12T23:38:33.766Z,47.50
2019-05-12T23:41:00.656Z,47.50
2019-05-12T23:43:28.121Z,47.50
2019-05-12T23:45:55.595Z,47.50
2019-05-12T23:48:23.048Z,47.70
2019-05-12T23:50:50.513Z,47.80
2019-05-12T23:53:17.975Z,48.00
2019-05-12T23:55:45.777Z,48.00
2019-05-12T23:58:14.448Z,48.00
